Time;durP1;ratioP1;P1;durP2;ratioP2;P2;SDS_P1;SDS_P2;PMS_P1;PMS_P2;Temp;Humidity;BMP_temperature;BMP_pressure;BME280_temperature;BME280_humidity;BME280_pressure;Samples;Min_cycle;Max_cycle;Signal;HPM_P1;HPM_P2
2021/05/26 00:01:35;;;;;;;17.85;3.90;;;;;;;;;;5010010;28;20018;-81
2021/05/26 00:04:00;;;;;;;20.58;3.47;;;;;;;;;;5011761;28;20490;-81
2021/05/26 00:06:25;;;;;;;25.13;3.53;;;;;;;;;;5011430;28;20067;-81
2021/05/26 00:08:50;;;;;;;22.00;4.03;;;;;;;;;;5011059;28;20378;-81
2021/05/26 00:11:18;;;;;;;20.02;3.97;;;;;;;;;;5010124;28;20022;-81
2021/05/26 00:13:44;;;;;;;18.30;3.75;;;;;;;;;;5026628;28;20025;-82
2021/05/26 00:16:09;;;;;;;26.70;3.60;;;;;;;;;;5009841;28;20375;-81
2021/05/26 00:18:35;;;;;;;19.48;3.38;;;;;;;;;;5008248;28;20020;-81
2021/05/26 00:21:02;;;;;;;18.92;3.40;;;;;;;;;;5011073;28;20075;-81
2021/05/26 00:23:27;;;;;;;11.32;3.30;;;;;;;;;;5009835;28;20035;-81
2021/05/26 00:25:53;;;;;;;11.80;3.58;;;;;;;;;;5010006;28;20018;-81
2021/05/26 00:28:18;;;;;;;17.98;3.58;;;;;;;;;;5010881;28;20066;-82
2021/05/26 00:30:47;;;;;;;25.00;4.50;;;;;;;;;;5015512;28;20106;-81
2021/05/26 00:33:13;;;;;;;26.75;4.00;;;;;;;;;;5009560;28;20140;-81
2021/05/26 00:35:38;;;;;;;18.77;3.28;;;;;;;;;;5026103;28;20018;-81
2021/05/26 00:38:04;;;;;;;30.33;4.32;;;;;;;;;;5009423;28;20022;-82
2021/05/26 00:40:29;;;;;;;22.10;4.40;;;;;;;;;;5009477;28;20033;-81
2021/05/26 00:42:54;;;;;;;20.92;4.20;;;;;;;;;;5009492;28;20377;-81
2021/05/26 00:45:19;;;;;;;16.55;3.65;;;;;;;;;;5009263;28;20576;-81
2021/05/26 00:47:46;;;;;;;17.23;3.33;;;;;;;;;;5009788;28;20012;-81
2021/05/26 00:50:16;;;;;;;17.95;4.90;;;;;;;;;;5009271;28;20473;-81
2021/05/26 00:52:41;;;;;;;19.63;3.40;;;;;;;;;;5008703;28;20053;-81
2021/05/26 00:55:06;;;;;;;17.92;3.38;;;;;;;;;;5010576;28;20018;-81
2021/05/26 00:57:32;;;;;;;18.90;3.70;;;;;;;;;;5009427;28;20469;-81
2021/05/26 00:59:57;;;;;;;13.23;3.05;;;;;;;;;;5009212;28;20028;-82
2021/05/26 01:02:23;;;;;;;18.48;3.67;;;;;;;;;;5009211;28;20073;-81
2021/05/26 01:04:48;;;;;;;16.30;3.63;;;;;;;;;;5025668;28;20010;-81
2021/05/26 01:07:13;;;;;;;20.20;3.85;;;;;;;;;;5008900;28;20477;-81
2021/05/26 01:09:38;;;;;;;18.50;3.70;;;;;;;;;;5009149;28;20032;-81
2021/05/26 01:12:04;;;;;;;13.80;3.95;;;;;;;;;;5025595;28;20038;-81
2021/05/26 01:14:29;;;;;;;16.65;3.25;;;;;;;;;;5008836;28;20414;-81
2021/05/26 01:16:55;;;;;;;14.20;3.22;;;;;;;;;;5010173;28;20017;-81
2021/05/26 01:19:20;;;;;;;25.13;4.05;;;;;;;;;;5010046;28;20030;-81
2021/05/26 01:21:50;;;;;;;17.63;4.07;;;;;;;;;;5009027;28;20021;-81
2021/05/26 01:24:15;;;;;;;14.23;3.58;;;;;;;;;;5010043;28;20024;-81
2021/05/26 01:26:40;;;;;;;20.05;3.80;;;;;;;;;;5026768;28;20014;-81
2021/05/26 01:29:05;;;;;;;22.45;4.10;;;;;;;;;;5016003;28;20413;-81
2021/05/26 01:31:30;;;;;;;17.23;3.67;;;;;;;;;;5011761;28;20034;-81
2021/05/26 01:33:55;;;;;;;13.38;3.30;;;;;;;;;;5008799;28;20079;-81
2021/05/26 01:36:21;;;;;;;18.67;3.53;;;;;;;;;;5024818;28;20018;-81
2021/05/26 01:38:46;;;;;;;18.63;4.28;;;;;;;;;;5008644;28;20021;-82
2021/05/26 01:41:11;;;;;;;15.65;3.05;;;;;;;;;;5009685;28;20025;-82
2021/05/26 01:43:36;;;;;;;11.85;3.50;;;;;;;;;;5008381;28;20113;-81
2021/05/26 01:46:02;;;;;;;12.03;3.50;;;;;;;;;;5024962;28;20118;-81
2021/05/26 01:48:27;;;;;;;14.10;3.38;;;;;;;;;;5008504;28;20027;-81
2021/05/26 01:50:53;;;;;;;21.65;4.22;;;;;;;;;;5009608;28;20121;-81
2021/05/26 01:53:18;;;;;;;14.32;3.15;;;;;;;;;;5008195;28;20038;-81
2021/05/26 01:55:43;;;;;;;15.93;3.63;;;;;;;;;;5009751;28;20063;-81
2021/05/26 01:58:09;;;;;;;17.43;3.83;;;;;;;;;;5008485;28;20121;-81
2021/05/26 02:00:34;;;;;;;13.27;2.90;;;;;;;;;;5007985;28;20030;-81
2021/05/26 02:02:59;;;;;;;14.63;2.92;;;;;;;;;;5008243;28;20013;-81
2021/05/26 02:05:25;;;;;;;13.38;3.13;;;;;;;;;;5024656;28;20099;-81
2021/05/26 02:07:52;;;;;;;12.05;2.72;;;;;;;;;;5009677;28;20369;-83
2021/05/26 02:12:19;;;;;;;11.05;3.08;;;;;;;;;;5009508;28;20021;-82
2021/05/26 02:13:04;;;;;;;12.13;3.10;;;;;;;;;;5009631;28;20162;-82
2021/05/26 02:15:29;;;;;;;13.18;2.67;;;;;;;;;;5009362;28;20022;-82
2021/05/26 02:17:54;;;;;;;9.50;2.70;;;;;;;;;;5008256;28;20067;-82
2021/05/26 02:20:19;;;;;;;13.23;2.67;;;;;;;;;;5014430;28;20161;-83
2021/05/26 02:22:44;;;;;;;17.02;3.08;;;;;;;;;;5009331;28;20487;-83
2021/05/26 02:25:10;;;;;;;15.48;3.10;;;;;;;;;;5008001;28;20037;-82
2021/05/26 02:27:35;;;;;;;6.17;2.30;;;;;;;;;;5009358;28;20540;-82
2021/05/26 02:30:00;;;;;;;13.77;3.40;;;;;;;;;;5008906;28;20018;-83
2021/05/26 02:32:26;;;;;;;14.80;2.75;;;;;;;;;;5008150;28;20419;-82
2021/05/26 02:34:51;;;;;;;6.90;2.58;;;;;;;;;;5009234;28;20050;-82
2021/05/26 02:37:16;;;;;;;9.50;2.60;;;;;;;;;;5009718;28;20109;-82
2021/05/26 02:39:42;;;;;;;11.80;2.70;;;;;;;;;;5007732;28;20069;-83
2021/05/26 02:42:07;;;;;;;15.47;2.90;;;;;;;;;;5024248;28;20117;-82
2021/05/26 02:44:32;;;;;;;14.83;3.50;;;;;;;;;;5011209;28;20036;-82
2021/05/26 02:46:57;;;;;;;13.57;2.90;;;;;;;;;;5009814;28;20449;-82
2021/05/26 02:49:22;;;;;;;13.23;3.42;;;;;;;;;;5009324;28;20029;-82
2021/05/26 02:51:48;;;;;;;15.75;3.13;;;;;;;;;;5007663;28;20025;-82
2021/05/26 02:54:13;;;;;;;13.63;3.13;;;;;;;;;;5007970;28;20508;-83
2021/05/26 02:56:38;;;;;;;11.80;2.70;;;;;;;;;;5008889;28;20358;-82
2021/05/26 02:59:04;;;;;;;13.45;2.70;;;;;;;;;;5008911;28;20045;-83
2021/05/26 03:01:30;;;;;;;9.10;2.60;;;;;;;;;;5008982;28;20492;-82
2021/05/26 03:03:55;;;;;;;11.65;2.40;;;;;;;;;;5007558;28;20025;-83
2021/05/26 03:06:20;;;;;;;9.18;2.70;;;;;;;;;;5007669;28;20026;-83
2021/05/26 03:08:45;;;;;;;10.38;2.28;;;;;;;;;;5023729;28;20014;-82
2021/05/26 03:11:10;;;;;;;14.57;2.42;;;;;;;;;;5008929;28;20071;-82
2021/05/26 03:13:36;;;;;;;10.50;2.45;;;;;;;;;;5007494;28;20380;-83
2021/05/26 03:16:02;;;;;;;6.93;2.22;;;;;;;;;;5019801;28;20028;-83
2021/05/26 03:18:28;;;;;;;5.57;1.92;;;;;;;;;;5011001;28;20370;-82
2021/05/26 03:20:53;;;;;;;7.40;2.15;;;;;;;;;;5010383;28;20022;-82
2021/05/26 03:23:19;;;;;;;9.13;1.98;;;;;;;;;;5011036;28;20033;-83
2021/05/26 03:25:47;;;;;;;7.55;2.03;;;;;;;;;;5011942;28;20070;-83
2021/05/26 03:28:13;;;;;;;9.98;2.10;;;;;;;;;;5011972;28;20679;-82
2021/05/26 03:30:39;;;;;;;7.18;1.95;;;;;;;;;;5011811;28;20152;-82
2021/05/26 03:33:05;;;;;;;8.48;2.10;;;;;;;;;;5027087;28;20026;-82
2021/05/26 03:35:32;;;;;;;6.90;1.93;;;;;;;;;;5010424;28;20032;-82
2021/05/26 03:37:57;;;;;;;8.20;1.83;;;;;;;;;;5011523;28;20059;-83
2021/05/26 03:40:22;;;;;;;5.30;1.98;;;;;;;;;;5010292;28;20105;-83
2021/05/26 03:42:47;;;;;;;3.60;1.47;;;;;;;;;;5018136;28;20604;-82
2021/05/26 03:45:13;;;;;;;5.83;1.60;;;;;;;;;;5011445;28;20018;-83
2021/05/26 03:47:39;;;;;;;4.57;1.57;;;;;;;;;;5011651;28;20054;-82
2021/05/26 03:50:05;;;;;;;3.10;1.50;;;;;;;;;;5011417;28;20702;-83
2021/05/26 03:52:30;;;;;;;3.83;1.70;;;;;;;;;;5011626;28;20487;-82
2021/05/26 03:54:55;;;;;;;4.72;1.50;;;;;;;;;;5011312;28;20030;-82
2021/05/26 03:57:21;;;;;;;4.37;1.40;;;;;;;;;;5010378;28;20032;-82
2021/05/26 03:59:46;;;;;;;4.97;1.50;;;;;;;;;;5010222;28;20477;-82
2021/05/26 04:02:11;;;;;;;6.53;1.20;;;;;;;;;;5010136;28;20416;-82
2021/05/26 04:04:38;;;;;;;5.00;1.40;;;;;;;;;;5011215;28;20018;-82
2021/05/26 04:07:04;;;;;;;3.10;1.33;;;;;;;;;;5011189;28;20101;-82
2021/05/26 04:09:29;;;;;;;2.20;0.97;;;;;;;;;;5011276;28;20068;-82
2021/05/26 04:11:54;;;;;;;3.50;1.20;;;;;;;;;;5011234;28;20113;-83
2021/05/26 04:14:19;;;;;;;4.15;1.23;;;;;;;;;;5010578;28;20461;-82
2021/05/26 04:16:45;;;;;;;4.00;1.30;;;;;;;;;;5014112;28;20124;-83
2021/05/26 04:19:10;;;;;;;7.15;1.77;;;;;;;;;;5010980;28;20048;-82
2021/05/26 04:21:35;;;;;;;5.50;1.38;;;;;;;;;;5011200;28;20022;-83
2021/05/26 04:24:00;;;;;;;4.20;1.27;;;;;;;;;;5011087;28;20079;-82
2021/05/26 04:26:25;;;;;;;7.30;1.40;;;;;;;;;;5009844;28;20465;-82
2021/05/26 04:28:51;;;;;;;6.47;1.38;;;;;;;;;;5011181;28;20089;-83
2021/05/26 04:31:16;;;;;;;4.28;1.40;;;;;;;;;;5033845;28;20064;-82
2021/05/26 04:33:41;;;;;;;6.80;1.40;;;;;;;;;;5011190;28;20030;-82
2021/05/26 04:36:07;;;;;;;6.32;1.13;;;;;;;;;;5009729;28;20071;-82
2021/05/26 04:38:32;;;;;;;3.50;1.00;;;;;;;;;;5010574;28;20029;-83
2021/05/26 04:40:59;;;;;;;4.35;1.73;;;;;;;;;;5009448;28;20103;-83
2021/05/26 04:43:24;;;;;;;6.47;1.00;;;;;;;;;;5010829;28;20022;-83
2021/05/26 04:45:50;;;;;;;3.92;1.10;;;;;;;;;;5010727;28;20021;-83
2021/05/26 04:48:15;;;;;;;4.32;1.08;;;;;;;;;;5010580;28;20022;-83
2021/05/26 04:50:40;;;;;;;3.00;0.90;;;;;;;;;;5010453;28;20058;-83
2021/05/26 04:53:05;;;;;;;4.35;1.20;;;;;;;;;;5009165;28;20496;-83
2021/05/26 04:55:30;;;;;;;3.85;1.05;;;;;;;;;;5010317;28;20046;-83
2021/05/26 04:57:59;;;;;;;5.35;1.30;;;;;;;;;;5010647;28;20022;-83
2021/05/26 05:00:24;;;;;;;8.00;1.70;;;;;;;;;;5009009;28;20013;-83
2021/05/26 05:02:49;;;;;;;4.35;1.63;;;;;;;;;;5010429;28;20014;-82
2021/05/26 05:05:14;;;;;;;5.60;1.83;;;;;;;;;;5010142;28;20097;-82
2021/05/26 05:07:40;;;;;;;8.82;1.75;;;;;;;;;;5010389;28;20149;-82
2021/05/26 05:10:05;;;;;;;4.82;2.00;;;;;;;;;;5010257;28;20022;-82
2021/05/26 05:12:30;;;;;;;6.75;2.30;;;;;;;;;;5008882;28;20093;-82
2021/05/26 05:14:56;;;;;;;12.63;3.17;;;;;;;;;;5010382;28;20037;-82
2021/05/26 05:17:21;;;;;;;4.50;1.98;;;;;;;;;;5010174;28;20097;-82
2021/05/26 05:19:46;;;;;;;7.60;2.60;;;;;;;;;;5010379;28;20091;-83
2021/05/26 05:22:11;;;;;;;10.18;2.53;;;;;;;;;;5009926;28;20030;-83
2021/05/26 05:24:36;;;;;;;5.47;2.42;;;;;;;;;;5008697;28;20038;-82
2021/05/26 05:27:01;;;;;;;7.87;2.40;;;;;;;;;;5010249;28;20014;-83
2021/05/26 05:29:27;;;;;;;6.15;2.53;;;;;;;;;;5009862;28;20026;-82
2021/05/26 05:31:52;;;;;;;6.30;2.35;;;;;;;;;;5010003;28;20045;-82
2021/05/26 05:34:17;;;;;;;8.07;2.80;;;;;;;;;;5013528;28;20045;-83
2021/05/26 05:36:42;;;;;;;5.60;2.20;;;;;;;;;;5008511;28;20017;-82
2021/05/26 05:39:07;;;;;;;6.72;2.20;;;;;;;;;;5008623;28;20110;-82
2021/05/26 05:41:33;;;;;;;4.57;2.00;;;;;;;;;;5009396;28;20058;-82
2021/05/26 05:43:58;;;;;;;5.63;2.13;;;;;;;;;;5008766;28;20020;-82
2021/05/26 05:46:23;;;;;;;6.90;2.33;;;;;;;;;;5008367;28;20050;-83
2021/05/26 05:48:48;;;;;;;6.15;2.10;;;;;;;;;;5008759;28;20053;-83
2021/05/26 05:51:13;;;;;;;4.35;1.73;;;;;;;;;;5009684;28;20032;-83
2021/05/26 05:53:39;;;;;;;5.30;1.90;;;;;;;;;;5009647;28;20025;-83
2021/05/26 05:56:04;;;;;;;6.57;2.00;;;;;;;;;;5009624;28;20025;-82
2021/05/26 05:58:29;;;;;;;5.20;2.00;;;;;;;;;;5009526;28;20044;-83
2021/05/26 06:00:54;;;;;;;4.60;1.67;;;;;;;;;;5008334;28;20060;-83
2021/05/26 06:03:20;;;;;;;8.75;2.42;;;;;;;;;;5009686;28;20100;-82
2021/05/26 06:05:45;;;;;;;3.33;1.87;;;;;;;;;;5024579;28;20103;-83
2021/05/26 06:08:10;;;;;;;3.92;2.10;;;;;;;;;;5024760;28;20018;-82
2021/05/26 06:10:36;;;;;;;5.70;2.22;;;;;;;;;;5009339;28;20018;-82
2021/05/26 06:13:03;;;;;;;7.30;2.33;;;;;;;;;;5008166;28;20156;-82
2021/05/26 06:15:28;;;;;;;9.77;2.17;;;;;;;;;;5024616;28;20029;-83
2021/05/26 06:17:57;;;;;;;6.68;2.13;;;;;;;;;;5017543;28;20026;-83
2021/05/26 06:20:22;;;;;;;3.42;1.85;;;;;;;;;;5009584;28;20029;-82
2021/05/26 06:22:47;;;;;;;5.35;2.20;;;;;;;;;;5009517;28;20018;-82
2021/05/26 06:25:13;;;;;;;6.32;2.10;;;;;;;;;;5007715;28;20434;-82
2021/05/26 06:27:38;;;;;;;6.57;2.50;;;;;;;;;;5018336;28;20018;-82
2021/05/26 06:30:03;;;;;;;6.28;2.13;;;;;;;;;;5009333;28;20018;-82
2021/05/26 06:32:28;;;;;;;6.50;2.10;;;;;;;;;;5009499;28;20080;-82
2021/05/26 06:34:54;;;;;;;8.88;2.75;;;;;;;;;;5029837;28;20174;-82
2021/05/26 06:37:19;;;;;;;5.38;2.10;;;;;;;;;;5053514;28;20033;-82
2021/05/26 06:39:44;;;;;;;4.15;2.17;;;;;;;;;;5023614;28;20044;-82
2021/05/26 06:42:09;;;;;;;3.90;1.75;;;;;;;;;;5015637;28;20017;-81
2021/05/26 06:44:34;;;;;;;5.43;2.13;;;;;;;;;;5037130;28;20033;-82
2021/05/26 06:47:00;;;;;;;4.93;2.08;;;;;;;;;;5059479;28;20029;-82
2021/05/26 06:49:25;;;;;;;5.13;2.67;;;;;;;;;;5010315;28;20029;-82
2021/05/26 06:51:50;;;;;;;5.50;1.90;;;;;;;;;;5063510;28;20018;-82
2021/05/26 06:54:15;;;;;;;5.70;2.72;;;;;;;;;;5039339;28;20037;-82
2021/05/26 06:56:41;;;;;;;5.88;2.10;;;;;;;;;;5021034;28;20481;-82
2021/05/26 06:59:07;;;;;;;5.75;2.25;;;;;;;;;;5027690;28;20065;-82
2021/05/26 07:01:32;;;;;;;8.00;2.03;;;;;;;;;;5011249;28;20022;-82
2021/05/26 07:03:57;;;;;;;4.00;2.10;;;;;;;;;;5034177;28;20469;-82
2021/05/26 07:06:22;;;;;;;7.00;2.17;;;;;;;;;;5011040;28;20022;-82
2021/05/26 07:08:47;;;;;;;8.10;2.15;;;;;;;;;;5012868;28;20091;-82
2021/05/26 07:11:13;;;;;;;6.43;2.05;;;;;;;;;;5012534;28;20049;-82
2021/05/26 07:13:38;;;;;;;6.40;2.40;;;;;;;;;;5013076;28;20026;-82
2021/05/26 07:16:04;;;;;;;3.67;1.73;;;;;;;;;;5011775;28;20025;-82
2021/05/26 07:18:29;;;;;;;6.25;2.13;;;;;;;;;;5065839;28;20480;-82
2021/05/26 07:20:54;;;;;;;8.00;2.50;;;;;;;;;;5039541;28;20062;-82
2021/05/26 07:23:20;;;;;;;4.63;2.17;;;;;;;;;;5010844;28;20018;-82
2021/05/26 07:25:45;;;;;;;3.95;1.90;;;;;;;;;;5058964;28;20012;-82
2021/05/26 07:28:12;;;;;;;4.95;2.30;;;;;;;;;;5064302;27;20331;-82
2021/05/26 07:30:37;;;;;;;9.10;1.88;;;;;;;;;;5030987;28;20029;-82
2021/05/26 07:33:02;;;;;;;5.80;1.88;;;;;;;;;;5010649;28;20326;-82
2021/05/26 07:35:27;;;;;;;2.88;1.48;;;;;;;;;;5011982;28;20022;-82
2021/05/26 07:37:53;;;;;;;5.05;2.05;;;;;;;;;;5012103;28;20021;-82
2021/05/26 07:40:18;;;;;;;3.83;1.45;;;;;;;;;;5027173;28;20026;-81
2021/05/26 07:42:43;;;;;;;4.15;1.75;;;;;;;;;;5014450;28;20078;-81
2021/05/26 07:45:08;;;;;;;4.47;1.60;;;;;;;;;;5013562;28;20357;-82
2021/05/26 07:47:34;;;;;;;3.88;1.80;;;;;;;;;;5010482;28;20018;-81
2021/05/26 07:49:59;;;;;;;5.43;2.47;;;;;;;;;;5011488;28;20050;-82
2021/05/26 07:52:27;;;;;;;4.72;1.92;;;;;;;;;;5011833;28;20086;-81
2021/05/26 07:54:53;;;;;;;5.47;2.03;;;;;;;;;;5011208;28;20025;-82
2021/05/26 07:57:18;;;;;;;5.22;1.73;;;;;;;;;;5010552;28;20457;-82
2021/05/26 07:59:44;;;;;;;3.90;2.05;;;;;;;;;;5026440;28;20026;-82
2021/05/26 08:02:11;;;;;;;4.30;1.70;;;;;;;;;;5009039;28;20029;-82
2021/05/26 08:04:36;;;;;;;4.88;1.92;;;;;;;;;;5011553;28;20022;-82
2021/05/26 08:07:02;;;;;;;7.65;2.40;;;;;;;;;;5020636;28;20028;-82
2021/05/26 08:09:27;;;;;;;6.55;2.20;;;;;;;;;;5011360;28;20021;-82
2021/05/26 08:11:52;;;;;;;2.88;1.60;;;;;;;;;;5009859;28;20014;-82
2021/05/26 08:14:17;;;;;;;6.10;2.05;;;;;;;;;;5011304;28;20026;-82
2021/05/26 08:16:42;;;;;;;5.75;2.00;;;;;;;;;;5010054;28;20030;-82
2021/05/26 08:19:07;;;;;;;4.50;2.20;;;;;;;;;;5010898;28;20010;-82
2021/05/26 08:21:33;;;;;;;4.28;1.75;;;;;;;;;;5020415;28;20476;-82
2021/05/26 08:23:58;;;;;;;6.68;2.90;;;;;;;;;;5015198;28;20032;-82
2021/05/26 08:26:23;;;;;;;3.83;1.98;;;;;;;;;;5011162;28;20512;-81
2021/05/26 08:28:49;;;;;;;4.60;1.70;;;;;;;;;;5010116;28;20476;-81
2021/05/26 08:31:15;;;;;;;5.70;2.30;;;;;;;;;;5009735;28;20036;-82
2021/05/26 08:33:41;;;;;;;8.02;2.28;;;;;;;;;;5011205;28;20105;-82
2021/05/26 08:36:06;;;;;;;7.05;2.00;;;;;;;;;;5010831;28;20026;-82
2021/05/26 08:38:31;;;;;;;5.28;2.60;;;;;;;;;;5009417;28;20025;-81
2021/05/26 08:40:57;;;;;;;6.13;2.50;;;;;;;;;;5010915;28;20025;-82
2021/05/26 08:43:23;;;;;;;5.63;2.20;;;;;;;;;;5025968;28;20358;-81
2021/05/26 08:45:49;;;;;;;6.05;1.92;;;;;;;;;;5010964;28;20156;-81
2021/05/26 08:48:17;;;;;;;4.82;1.95;;;;;;;;;;5009493;28;20479;-82
2021/05/26 08:50:44;;;;;;;5.65;2.00;;;;;;;;;;5009551;28;20033;-82
2021/05/26 08:53:10;;;;;;;4.75;1.63;;;;;;;;;;5010058;28;20405;-81
2021/05/26 08:55:36;;;;;;;4.78;1.83;;;;;;;;;;5025613;28;20020;-81
2021/05/26 08:58:01;;;;;;;4.57;1.85;;;;;;;;;;5010687;28;20370;-81
2021/05/26 09:00:26;;;;;;;5.78;1.98;;;;;;;;;;5009976;28;20030;-81
2021/05/26 09:02:51;;;;;;;6.70;2.00;;;;;;;;;;5014276;28;20109;-82
2021/05/26 09:05:20;;;;;;;7.82;2.28;;;;;;;;;;5010553;28;20030;-81
2021/05/26 09:07:45;;;;;;;3.97;1.55;;;;;;;;;;5010324;28;20032;-81
2021/05/26 09:10:11;;;;;;;5.32;1.77;;;;;;;;;;5009955;28;20462;-81
2021/05/26 09:12:38;;;;;;;7.47;2.20;;;;;;;;;;5028988;28;20026;-81
2021/05/26 09:15:17;;;;;;;5.68;1.90;;;;;;;;;;5054737;27;20055;-81
2021/05/26 09:17:43;;;;;;;6.20;1.60;;;;;;;;;;5005435;28;20090;-81
2021/05/26 09:20:14;;;;;;;5.30;1.90;;;;;;;;;;5050685;28;20032;-81
2021/05/26 09:22:55;;;;;;;6.55;1.90;;;;;;;;;;5068297;28;20037;-82
2021/05/26 09:25:21;;;;;;;4.70;1.63;;;;;;;;;;5041037;28;20481;-81
2021/05/26 09:27:46;;;;;;;5.55;1.65;;;;;;;;;;5010881;28;20018;-81
2021/05/26 09:30:11;;;;;;;8.15;2.13;;;;;;;;;;5008565;28;20045;-81
2021/05/26 09:32:39;;;;;;;3.88;2.00;;;;;;;;;;5037460;28;20102;-80
2021/05/26 09:35:05;;;;;;;4.13;2.13;;;;;;;;;;5010972;28;20026;-81
2021/05/26 09:37:31;;;;;;;4.13;1.98;;;;;;;;;;5010389;28;20075;-81
2021/05/26 09:40:00;;;;;;;4.75;2.10;;;;;;;;;;5007051;28;20099;-81
2021/05/26 09:42:25;;;;;;;8.48;2.22;;;;;;;;;;5011101;28;20070;-81
2021/05/26 09:45:01;;;;;;;6.70;1.90;;;;;;;;;;5007934;28;20097;-81
2021/05/26 09:47:53;;;;;;;9.55;2.10;;;;;;;;;;5010265;28;20025;-80
2021/05/26 09:50:33;;;;;;;4.75;2.08;;;;;;;;;;5011085;28;20021;-81
2021/05/26 09:53:01;;;;;;;4.32;1.88;;;;;;;;;;5016257;28;20071;-81
2021/05/26 09:55:29;;;;;;;6.35;1.83;;;;;;;;;;4995368;28;20018;-81
2021/05/26 09:57:54;;;;;;;4.78;2.17;;;;;;;;;;5001764;28;20023;-81
2021/05/26 10:00:20;;;;;;;6.85;2.25;;;;;;;;;;5008440;28;20055;-81
2021/05/26 10:02:46;;;;;;;6.88;2.20;;;;;;;;;;5055391;28;20022;-81
2021/05/26 10:05:15;;;;;;;5.65;2.20;;;;;;;;;;5035537;28;20015;-81
2021/05/26 10:07:40;;;;;;;8.35;3.13;;;;;;;;;;5053590;28;20027;-81
2021/05/26 10:10:08;;;;;;;11.23;2.65;;;;;;;;;;5055249;28;20030;-82
2021/05/26 10:12:34;;;;;;;8.20;3.05;;;;;;;;;;5060189;28;20032;-81
2021/05/26 10:15:00;;;;;;;10.55;3.30;;;;;;;;;;5029151;28;20037;-81
2021/05/26 10:17:33;;;;;;;8.77;2.90;;;;;;;;;;5071127;28;20053;-81
2021/05/26 10:19:58;;;;;;;10.65;3.67;;;;;;;;;;5028251;28;20022;-81
2021/05/26 10:22:24;;;;;;;10.50;2.75;;;;;;;;;;5047169;28;20018;-81
2021/05/26 10:24:49;;;;;;;10.93;3.65;;;;;;;;;;5027009;28;20022;-82
2021/05/26 10:27:33;;;;;;;10.95;4.80;;;;;;;;;;5067387;28;20425;-82
2021/05/26 10:29:58;;;;;;;13.70;4.53;;;;;;;;;;5022892;28;20018;-81
2021/05/26 10:32:25;;;;;;;9.10;5.25;;;;;;;;;;5071534;28;20098;-81
2021/05/26 10:34:51;;;;;;;12.82;4.55;;;;;;;;;;5085155;28;20025;-81
2021/05/26 10:37:25;;;;;;;9.32;5.22;;;;;;;;;;5013273;28;20033;-81
2021/05/26 10:39:51;;;;;;;11.80;4.78;;;;;;;;;;5009776;28;20045;-82
2021/05/26 10:42:26;;;;;;;9.68;4.15;;;;;;;;;;5042553;28;20421;-81
2021/05/26 10:45:03;;;;;;;9.85;4.95;;;;;;;;;;5034224;28;20318;-81
2021/05/26 10:47:37;;;;;;;17.65;5.90;;;;;;;;;;5012403;28;20026;-82
2021/05/26 10:50:03;;;;;;;9.32;5.38;;;;;;;;;;5011818;28;20094;-81
2021/05/26 10:52:29;;;;;;;10.57;6.15;;;;;;;;;;5048892;28;20018;-82
2021/05/26 10:54:54;;;;;;;14.80;6.55;;;;;;;;;;5017938;28;20473;-82
2021/05/26 10:57:19;;;;;;;15.50;6.70;;;;;;;;;;5044889;28;20034;-82
2021/05/26 11:00:03;;;;;;;13.98;7.18;;;;;;;;;;5019875;28;20401;-82
2021/05/26 11:02:29;;;;;;;9.40;6.22;;;;;;;;;;5055212;28;20053;-81
2021/05/26 11:05:14;;;;;;;15.48;6.68;;;;;;;;;;5024920;28;20047;-81
2021/05/26 11:07:39;;;;;;;13.98;6.30;;;;;;;;;;5017757;28;20022;-82
2021/05/26 11:10:06;;;;;;;13.57;6.70;;;;;;;;;;5012692;28;20033;-82
2021/05/26 11:12:50;;;;;;;13.30;5.78;;;;;;;;;;5087314;28;20029;-82
2021/05/26 11:15:34;;;;;;;10.10;6.55;;;;;;;;;;5066557;28;20050;-81
2021/05/26 11:18:16;;;;;;;11.75;6.40;;;;;;;;;;5012138;28;20076;-82
2021/05/26 11:20:41;;;;;;;11.27;5.95;;;;;;;;;;5024841;28;20397;-81
2021/05/26 11:23:12;;;;;;;13.27;5.80;;;;;;;;;;5015722;28;20030;-81
2021/05/26 11:25:38;;;;;;;9.88;5.45;;;;;;;;;;5035314;28;20021;-82
2021/05/26 11:28:03;;;;;;;9.38;4.90;;;;;;;;;;5075392;28;20023;-82
2021/05/26 11:30:28;;;;;;;4.38;3.60;;;;;;;;;;5011846;28;20024;-82
2021/05/26 11:32:54;;;;;;;9.15;4.05;;;;;;;;;;5009699;28;20026;-81
2021/05/26 11:35:19;;;;;;;4.55;3.45;;;;;;;;;;5015841;28;20030;-81
2021/05/26 11:37:44;;;;;;;6.07;3.33;;;;;;;;;;5031098;28;20018;-81
2021/05/26 11:40:16;;;;;;;6.45;3.80;;;;;;;;;;5017087;28;20087;-80
2021/05/26 11:42:42;;;;;;;6.95;3.45;;;;;;;;;;5010915;28;20033;-81
2021/05/26 11:45:08;;;;;;;5.97;3.20;;;;;;;;;;5018934;28;20041;-81
2021/05/26 11:47:39;;;;;;;11.20;3.65;;;;;;;;;;5017748;28;20018;-81
2021/05/26 11:50:14;;;;;;;4.47;3.33;;;;;;;;;;5011779;28;20033;-81
2021/05/26 11:52:44;;;;;;;4.78;3.00;;;;;;;;;;5051827;28;20044;-81
2021/05/26 11:55:09;;;;;;;4.72;3.30;;;;;;;;;;5066028;28;20069;-80
2021/05/26 11:57:37;;;;;;;4.18;3.15;;;;;;;;;;5025843;28;20050;-81
2021/05/26 12:00:06;;;;;;;5.72;3.17;;;;;;;;;;5018546;28;20070;-81
2021/05/26 12:02:32;;;;;;;9.77;3.90;;;;;;;;;;5011597;28;20045;-81
2021/05/26 12:04:57;;;;;;;7.53;4.00;;;;;;;;;;5007288;28;20057;-81
2021/05/26 12:07:27;;;;;;;6.13;3.83;;;;;;;;;;5016882;28;20010;-81
2021/05/26 12:09:56;;;;;;;10.93;4.30;;;;;;;;;;5053167;28;20124;-80
2021/05/26 12:12:22;;;;;;;8.55;4.18;;;;;;;;;;5101292;28;20031;-80
2021/05/26 12:14:47;;;;;;;9.77;3.67;;;;;;;;;;5096963;28;20466;-81
2021/05/26 12:17:15;;;;;;;7.72;2.50;;;;;;;;;;5013986;28;20061;-81
2021/05/26 12:19:41;;;;;;;7.30;2.67;;;;;;;;;;5016838;28;20026;-81
2021/05/26 12:22:07;;;;;;;4.75;2.50;;;;;;;;;;5029726;28;20825;-81
2021/05/26 12:24:48;;;;;;;11.90;3.25;;;;;;;;;;5009792;28;20017;-80
2021/05/26 12:27:13;;;;;;;7.28;2.80;;;;;;;;;;5012870;28;20052;-80
2021/05/26 12:29:38;;;;;;;4.68;2.67;;;;;;;;;;5036977;28;20024;-80
2021/05/26 12:32:04;;;;;;;9.82;2.80;;;;;;;;;;5011682;28;20025;-81
2021/05/26 12:34:29;;;;;;;11.57;3.58;;;;;;;;;;5011410;28;20034;-81
2021/05/26 12:36:56;;;;;;;6.75;3.22;;;;;;;;;;5060570;28;20026;-80
2021/05/26 12:39:22;;;;;;;5.45;3.13;;;;;;;;;;5054854;28;20031;-81
2021/05/26 12:41:48;;;;;;;7.82;3.05;;;;;;;;;;5019815;27;20415;-81
2021/05/26 12:44:13;;;;;;;11.32;3.30;;;;;;;;;;5010928;28;20424;-81
2021/05/26 12:46:39;;;;;;;5.13;2.65;;;;;;;;;;5010067;28;20423;-81
2021/05/26 12:49:06;;;;;;;6.60;2.63;;;;;;;;;;5010805;28;20017;-81
2021/05/26 12:51:47;;;;;;;9.20;3.20;;;;;;;;;;5012590;28;20033;-80
2021/05/26 12:54:12;;;;;;;8.32;2.13;;;;;;;;;;5010948;28;20040;-81
2021/05/26 12:56:38;;;;;;;13.02;2.00;;;;;;;;;;5052929;28;20024;-80
2021/05/26 12:59:03;;;;;;;12.93;2.63;;;;;;;;;;5058956;27;20059;-81
2021/05/26 13:01:28;;;;;;;17.73;3.03;;;;;;;;;;5093839;28;20032;-80
2021/05/26 13:03:54;;;;;;;15.80;4.10;;;;;;;;;;5024851;28;20022;-81
2021/05/26 13:06:20;;;;;;;7.53;1.90;;;;;;;;;;5065700;27;20032;-82
2021/05/26 13:08:58;;;;;;;6.68;1.33;;;;;;;;;;5026834;28;20064;-81
2021/05/26 13:11:39;;;;;;;2.97;1.10;;;;;;;;;;5012104;28;20432;-81
2021/05/26 13:14:04;;;;;;;3.53;0.88;;;;;;;;;;5020487;28;20492;-81
2021/05/26 13:16:29;;;;;;;3.15;0.50;;;;;;;;;;5087005;28;20024;-81
2021/05/26 13:18:55;;;;;;;8.68;0.70;;;;;;;;;;5053970;28;20467;-82
2021/05/26 13:21:20;;;;;;;8.10;0.70;;;;;;;;;;5068167;28;20056;-81
2021/05/26 13:23:46;;;;;;;2.08;0.60;;;;;;;;;;5069537;28;20060;-80
2021/05/26 13:26:11;;;;;;;0.85;0.60;;;;;;;;;;5070275;28;20020;-81
2021/05/26 13:28:39;;;;;;;3.67;0.90;;;;;;;;;;5070260;28;20038;-82
2021/05/26 13:31:04;;;;;;;5.45;1.45;;;;;;;;;;5046279;28;20088;-81
2021/05/26 13:33:29;;;;;;;7.90;1.05;;;;;;;;;;5082322;28;20029;-81
2021/05/26 13:35:56;;;;;;;3.55;1.00;;;;;;;;;;5019532;28;20018;-82
2021/05/26 13:38:21;;;;;;;1.80;1.15;;;;;;;;;;5024940;28;20109;-81
2021/05/26 13:40:47;;;;;;;6.30;1.50;;;;;;;;;;5043917;28;20591;-81
2021/05/26 13:43:13;;;;;;;4.03;1.30;;;;;;;;;;5045882;28;20511;-81
2021/05/26 13:45:38;;;;;;;4.07;1.35;;;;;;;;;;5027718;28;20046;-81
2021/05/26 13:48:06;;;;;;;1.40;1.02;;;;;;;;;;5001547;28;20018;-82
2021/05/26 13:50:32;;;;;;;5.05;2.10;;;;;;;;;;4997414;28;20017;-81
2021/05/26 13:52:58;;;;;;;28.88;3.08;;;;;;;;;;5001790;28;20083;-81
2021/05/26 13:55:23;;;;;;;11.40;2.97;;;;;;;;;;5040786;28;20021;-81
2021/05/26 13:57:56;;;;;;;3.33;0.90;;;;;;;;;;5039914;28;20457;-82
2021/05/26 14:00:22;;;;;;;5.30;0.88;;;;;;;;;;5039170;28;20026;-81
2021/05/26 14:02:47;;;;;;;5.65;0.63;;;;;;;;;;5081698;28;20032;-81
2021/05/26 14:05:13;;;;;;;6.10;0.75;;;;;;;;;;5025234;28;20083;-81
2021/05/26 14:07:39;;;;;;;1.85;0.70;;;;;;;;;;5093401;28;20073;-81
2021/05/26 14:10:05;;;;;;;4.22;1.05;;;;;;;;;;5017622;28;20026;-81
2021/05/26 14:12:30;;;;;;;1.25;0.90;;;;;;;;;;5077334;28;20026;-81
2021/05/26 14:14:55;;;;;;;3.58;1.08;;;;;;;;;;5096528;28;20031;-81
2021/05/26 14:17:20;;;;;;;2.53;1.00;;;;;;;;;;5093889;28;20019;-81
2021/05/26 14:19:46;;;;;;;1.27;0.98;;;;;;;;;;5054229;28;20391;-81
2021/05/26 14:22:11;;;;;;;6.03;1.80;;;;;;;;;;5065571;28;20016;-81
2021/05/26 14:24:37;;;;;;;3.30;1.40;;;;;;;;;;5024617;28;20344;-81
2021/05/26 14:27:03;;;;;;;3.03;1.60;;;;;;;;;;5017165;28;20488;-81
2021/05/26 14:29:28;;;;;;;4.55;1.77;;;;;;;;;;4994120;28;20155;-81
2021/05/26 14:31:53;;;;;;;4.60;2.10;;;;;;;;;;5034594;28;20012;-81
2021/05/26 14:34:18;;;;;;;7.22;2.00;;;;;;;;;;5077407;28;20096;-80